Flight Track Log - Related Links

Times and Time Zones

All times are in EDT time to prevent confusion due to time zone crossing. See the N1807N flight status page for this flight to view local times or setup timezone preferences in your user account.

Time Position Orientation Groundspeed Altitude Reporting Facility
EDT Latitude Longitude Course Direction KTS MPH feet Rate Location/Type
Mon 05:49:30 PM 35.6258 -79.0672 352° North 127 146 2,400  Level Washington Center
Mon 05:50:37 PM 35.6653 -79.0742 352° North 135 155 3,400 767 Climbing Washington Center
Mon 05:51:43 PM 35.7058 -79.1117 323° Northwest 163 188 4,100 331 Climbing Washington Center
Mon 05:52:44 PM 35.7533 -79.1292 343° North 184 212 4,100  Level Washington Center
Mon 05:53:45 PM 35.8031 -79.1417 348° North 185 213 4,100 -52 Level Washington Center
Mon 05:54:40 PM 35.8472 -79.1231 19° North 179 206 4,000 -52 Descending Washington Center
Mon 05:55:40 PM 35.8919 -79.0944 27° Northeast 178 205 4,000  Level Washington Center
Mon 05:56:41 PM 35.9347 -79.0656 29° Northeast 176 203 4,000  Level Washington Center
Mon 05:57:48 PM 35.9778 -79.0186 41° Northeast 177 204 4,000  Level Washington Center
Mon 05:58:49 PM 36.0142 -78.9792 41° Northeast 177 204 4,000  Level Washington Center
Mon 05:59:50 PM 36.0528 -78.9422 38° Northeast 175 201 4,000  Level Washington Center
Mon 06:00:50 PM 36.0894 -78.9025 41° Northeast 174 200 4,000  Level Washington Center
Mon 06:01:51 PM 36.1281 -78.8656 38° Northeast 177 204 4,000  Level Washington Center
Mon 06:02:52 PM 36.1625 -78.8258 43° Northeast 174 200 4,000  Level Washington Center
Mon 06:03:53 PM 36.2033 -78.7814 41° Northeast 173 199 4,000  Level Washington Center
Mon 06:04:18 PM 36.2161 -78.7664 43° Northeast 171 197 4,000  Level Washington Center
Mon 06:04:47 PM 36.2356 -78.7492 36° Northeast 174 200 4,000  Level Washington Center
Mon 06:05:18 PM 36.2506 -78.7317 43° Northeast 187 215 4,000  Level Washington Center
Mon 06:06:18 PM 36.2892 -78.6894 41° Northeast 190 219 4,000  Level Washington Center
Mon 06:07:18 PM 36.3194 -78.6519 45° Northeast 172 198 4,000  Level Washington Center
Mon 06:08:18 PM 36.3519 -78.6017 51° Northeast 167 192 4,000  Level Washington Center
Mon 06:09:18 PM 36.3800 -78.5614 49° Northeast 167 192 4,000  Level Washington Center
Mon 06:10:18 PM 36.4147 -78.5111 49° Northeast 167 192 4,000  Level Washington Center
Mon 06:11:18 PM 36.4450 -78.4658 50° Northeast 167 192 4,000 50 Level Washington Center
Mon 06:12:18 PM 36.4753 -78.4203 50° Northeast 167 192 4,100 50 Climbing Washington Center
Mon 06:13:18 PM 36.5056 -78.3750 50° Northeast 167 192 4,100  Level Washington Center
Mon 06:14:18 PM 36.5358 -78.3294 50° Northeast 167 192 4,100  Level Washington Center
Mon 06:15:18 PM 36.5661 -78.2814 52° Northeast 167 192 4,100  Level Washington Center
Mon 06:16:18 PM 36.5983 -78.2361 48° Northeast 167 192 4,100  Level Washington Center
Mon 06:17:18 PM 36.6286 -78.1931 49° Northeast 167 192 4,100  Level Washington Center
Mon 06:18:18 PM 36.6586 -78.1500 49° Northeast 167 192 4,100  Level Washington Center
Mon 06:19:18 PM 36.6847 -78.1042 55° Northeast 173 199 4,100  Level Washington Center
Mon 06:20:18 PM 36.7169 -78.0586 49° Northeast 173 199 4,100  Level Washington Center
Mon 06:21:18 PM 36.7469 -78.0156 49° Northeast 168 193 4,100 -300 Level Washington Center
Mon 06:22:18 PM 36.7794 -77.9672 50° Northeast 168 193 3,500 -500 Descending Washington Center
Mon 06:23:18 PM 36.8117 -77.9189 50° Northeast 174 200 3,100 -200 Descending Washington Center
Mon 06:24:18 PM 36.8436 -77.8783 45° Northeast 169 194 3,100  Level Washington Center
Mon 06:25:18 PM 36.8817 -77.8458 34° Northeast 164 189 3,100  Level Washington Center
Mon 06:26:18 PM 36.9200 -77.8131 34° Northeast 159 183 3,100 -50 Level Washington Center
Mon 06:27:18 PM 36.9581 -77.7778 37° Northeast 159 183 3,000 -50 Descending Washington Center
Mon 06:28:19 PM 36.9964 -77.7450 34° Northeast 164 189 3,000  Level Washington Center
Mon 06:29:18 PM 37.0344 -77.7097 36° Northeast 164 189 3,000  Level Washington Center
Mon 06:30:18 PM 37.0728 -77.6744 36° Northeast 164 189 3,000  Level Washington Center
Mon 06:31:18 PM 37.1108 -77.6417 34° Northeast 164 189 3,000  Level Washington Center
Mon 06:32:18 PM 37.1489 -77.6061 37° Northeast 164 189 3,000  Level Washington Center
Mon 06:33:18 PM 37.1869 -77.5706 37° Northeast 164 189 3,000  Level Washington Center
Mon 06:34:18 PM 37.2253 -77.5375 34° Northeast 164 189 3,000  Level Washington Center
Mon 06:36:08 PM 37.3000 -77.4667 37° Northeast 168 193 3,000  Level Potomac TRACON
Mon 06:37:09 PM 37.3333 -77.4333 38° Northeast 172 198 3,000  Level Potomac TRACON
Mon 06:38:09 PM 37.3667 -77.4000 38° Northeast 170 196 3,000  Level Potomac TRACON
Mon 06:39:03 PM 37.4167 -77.3667 28° Northeast 174 200 3,000  Level Potomac TRACON
Mon 06:40:09 PM 37.4500 -77.3333 38° Northeast 171 197 3,000  Level Potomac TRACON
Mon 06:41:09 PM 37.4833 -77.3000 38° Northeast 171 197 3,000  Level Potomac TRACON
Mon 06:42:09 PM 37.5333 -77.2667 28° Northeast 166 191 3,000  Level Potomac TRACON
Mon 06:43:09 PM 37.5667 -77.2167 50° Northeast 168 193 3,000  Level Potomac TRACON
Mon 06:44:04 PM 37.6000 -77.2000 22° Northeast 167 192 3,000  Level Potomac TRACON
Mon 06:45:04 PM 37.6333 -77.1500 50° Northeast 173 199 3,000  Level Potomac TRACON
Mon 06:46:04 PM 37.6833 -77.1167 28° Northeast 171 197 3,000  Level Potomac TRACON
Mon 06:47:04 PM 37.7167 -77.0833 38° Northeast 168 193 3,000  Level Potomac TRACON
Mon 06:48:04 PM 37.7500 -77.0500 38° Northeast 171 197 3,000  Level Potomac TRACON
Mon 06:49:04 PM 37.7833 -77.0167 38° Northeast 171 197 3,000  Level Potomac TRACON
Mon 06:50:04 PM 37.8333 -76.9833 28° Northeast 171 197 3,000  Level Potomac TRACON
Mon 06:50:54 PM 37.8589 -76.9489 47° Northeast 171 197 3,000  Level Washington Center
Mon 06:51:54 PM 37.8969 -76.9128 37° Northeast 171 197 3,000  Level Washington Center
Mon 06:52:55 PM 37.9347 -76.8767 37° Northeast 173 199 3,000  Level Washington Center
Mon 06:53:54 PM 37.9747 -76.8431 34° Northeast 186 214 3,000  Level Washington Center
Mon 06:54:54 PM 38.0067 -76.7961 49° Northeast 181 208 3,000  Level Washington Center
Mon 06:55:54 PM 38.0383 -76.7492 49° Northeast 171 197 3,000 300 Level Washington Center
Mon 06:56:54 PM 38.0678 -76.7100 46° Northeast 161 185 3,600 1,000 Climbing Washington Center
Mon 06:57:54 PM 38.0953 -76.6708 48° Northeast 156 180 5,000 600 Climbing Washington Center
Mon 06:58:54 PM 38.1269 -76.6292 46° Northeast 156 180 4,800 50 Descending Washington Center
Mon 06:59:54 PM 38.1567 -76.5819 51° Northeast 156 180 5,100 100 Climbing Washington Center
Mon 07:00:54 PM 38.1925 -76.5350 46° Northeast 168 193 5,000 -50 Descending Washington Center
Mon 07:01:55 PM 38.2261 -76.4850 49° Northeast 173 199 5,000  Level Washington Center
Mon 07:02:54 PM 38.2642 -76.4353 46° Northeast 178 205 5,000  Level Washington Center
Mon 07:03:55 PM 38.3019 -76.3908 43° Northeast 183 211 5,000  Level Washington Center
Mon 07:04:54 PM 38.3458 -76.3806 10° North 177 204 5,000  Level Washington Center
Mon 07:05:54 PM 38.4000 -76.3706 North 177 204 5,000  Level Washington Center
Mon 07:06:54 PM 38.4503 -76.3578 11° North 187 215 5,000  Level Washington Center
Mon 07:07:54 PM 38.5003 -76.3397 16° North 187 215 5,000  Level Washington Center
Mon 07:08:54 PM 38.5525 -76.3269 11° North 182 209 5,000  Level Washington Center
Mon 07:09:54 PM 38.6028 -76.3117 13° North 182 209 5,000 36 Level Washington Center
Mon 07:11:42 PM 38.7000 -76.2833 13° North 188 216 5,100 -36 Climbing Potomac TRACON
Mon 07:12:42 PM 38.7500 -76.2833 360° North 195 224 4,900 -500 Descending Potomac TRACON
Mon 07:13:42 PM 38.8167 -76.3000 349° North 204 235 4,100 -800 Descending Potomac TRACON
Mon 07:14:42 PM 38.8667 -76.3167 345° North 204 235 3,300 -526 Descending Potomac TRACON
Mon 07:15:36 PM 38.9167 -76.3167 360° North 194 223 3,100 -100 Descending Potomac TRACON
Mon 07:16:42 PM 38.9667 -76.3333 345° North 173 199 3,100  Level Potomac TRACON
Mon 07:17:37 PM 39.0167 -76.3500 345° North 171 197 3,100  Level Potomac TRACON
Mon 07:18:37 PM 39.0667 -76.3500 360° North 174 200 3,100  Level Potomac TRACON
Mon 07:19:43 PM 39.1167 -76.3667 346° North 172 198 3,100  Level Potomac TRACON
Mon 07:20:43 PM 39.1500 -76.3833 339° North 163 188 3,100  Level Potomac TRACON
Mon 07:21:37 PM 39.2000 -76.3833 360° North 154 177 3,100  Level Potomac TRACON
Mon 07:22:37 PM 39.2333 -76.4000 339° North 160 184 3,100  Level Potomac TRACON
Mon 07:23:37 PM 39.2667 -76.4500 311° West 163 188 3,100 -300 Level Potomac TRACON
Mon 07:24:37 PM 39.2833 -76.4833 303° West 137 158 2,500 -619 Descending Potomac TRACON
Mon 07:25:43 PM 39.3167 -76.4833 360° North 120 138 1,800 -619 Descending Potomac TRACON
Mon 07:26:43 PM 39.3500 -76.4667 21° North 117 135 1,200 -744 Descending Potomac TRACON
Mon 07:27:44 PM 39.3333 -76.4333 123° Southeast 101 116 300 -885 Descending Potomac TRACON
Mon 07:29:00 PM 39.3257 -76.4138 123° Southeast  Level Estimated
Mon 07:36:00 PM 39.3257 -76.4138 123° Southeast  Level Estimated
Mon 07:37:00 PM 39.3257 -76.4138 123° Southeast  Level Estimated
Mon 07:38:00 PM 39.3257 -76.4138 123° Southeast  Level Estimated
Mon 07:39:00 PM 39.3257 -76.4138 123° Southeast  Level Estimated
Mon 07:40:00 PM 39.3257 -76.4138 123° Southeast  Level Estimated
Mon 07:41:00 PM 39.3257 -76.4138 123° Southeast  Level Estimated
Mon 07:42:00 PM 39.3257 -76.4138 123° Southeast  Level Estimated
Mon 07:43:00 PM 39.3257 -76.4138 123° Southeast  Level Estimated
Mon 07:44:00 PM 39.3257 -76.4138 123° Southeast  Level Estimated

Login

Don't have an account? Register now (free) for customized features, flight alerts, and more!